AF1792 / F-HBLG 7700 Squawk Report (11th of January, 2019)

Aircraft E190 Reg No. F-HBLG Age N/A
Model Emb-190 Jet engines 2 First flight 02-09
Registered 01-02-19 Rollout 01-09 Delivered 18-02-09
Construction No. 19000254 Line No. N/A Series 100STD
ADSHEX 398566 Airline name N/A Owner Regional
Airfield based Paris-Charles de Gaulle~Val-d'Oise~F First tracked 2017-07-13 11:10:00

Flight history for F-HBLG

Route Flight No Date Playback
Blagnac (TLS) - Lesquin (LIL) AF1418 2019-10-17 19:08:00
Lesquin (LIL) - Blagnac (TLS) AF1413 2019-10-17 16:43:00
Blagnac (TLS) - Lesquin (LIL) AF1412 2019-10-17 15:53:00
Charles De Gaulle (CDG) - Dusseldorf (DUS) AF1406 2019-10-17 11:33:00
Blagnac (TLS) - Lesquin (LIL) AF1399 2019-10-17 10:44:00
Lesquin (LIL) - Blagnac (TLS) AF1398 2019-10-17 06:00:00
Blagnac (TLS) - Lesquin (LIL) AF1418 2019-10-17 05:08:00
Lesquin (LIL) - Blagnac (TLS) AF1413 2019-10-16 16:40:00
Blagnac (TLS) - Lesquin (LIL) AF1412 2019-10-16 15:53:00
Charles De Gaulle (CDG) - Dusseldorf (DUS) AF1406 2019-10-16 11:27:00
Blagnac (TLS) - Lesquin (LIL) AF1399 2019-10-16 10:42:00
Lesquin (LIL) - Blagnac (TLS) AF1398 2019-10-16 05:53:00
Blagnac (TLS) - Lesquin (LIL) AF1399 2019-10-15 08:16:00
Lesquin (LIL) - Blagnac (TLS) AF1398 2019-10-15 05:42:00
Blagnac (TLS) - Lesquin (LIL) AF1418 2019-10-15 05:00:00
Lesquin (LIL) - Blagnac (TLS) AF1413 2019-10-14 16:47:00
Blagnac (TLS) - Lesquin (LIL) AF1412 2019-10-14 15:56:00
Charles De Gaulle (CDG) - Dusseldorf (DUS) AF1406 2019-10-14 11:35:00
Blagnac (TLS) - Lesquin (LIL) AF1399 2019-10-14 10:45:00
Lesquin (LIL) - Blagnac (TLS) AF1398 2019-10-14 05:45:00
Time Lat Lon Altitude Heading Speed Vertical Rate
2019-01-11 11:23:03 GMT 48.184212 -0.629617 13,050 253 328 -2640
2019-01-11 11:22:46 GMT 48.190887 -0.594743 13,900 253 342 -2580
2019-01-11 11:21:55 GMT 48.212288 -0.482853 16,775 253 341 -1980
2019-01-11 11:21:28 GMT 48.232262 -0.380075 17,925 253 357 -1260
2019-01-11 11:21:10 GMT 48.232262 -0.380075 18,625 253 357 -1260
2019-01-11 11:21:00 GMT 48.236763 -0.356808 19,050 254 360 -1080
2019-01-11 11:20:44 GMT 48.244286 -0.319656 19,600 254 366 -780
2019-01-11 11:20:18 GMT 48.256577 -0.256380 20,525 255 362 -240
2019-01-11 11:19:58 GMT 48.265984 -0.207978 20,975 257 370 0
2019-01-11 11:19:47 GMT 48.270458 -0.180922 21,000 270 347 0
2019-01-11 11:19:22 GMT 48.279736 -0.117660 21,000 312 296 0
2019-01-11 11:18:58 GMT 48.270466 -0.062675 21,000 331 306 0
2019-01-11 11:18:40 GMT 48.250874 -0.033686 21,000 355 297 0
2019-01-11 11:18:15 GMT 48.216938 -0.019052 21,000 14 288 0
2019-01-11 11:17:58 GMT 48.193188 -0.026478 21,000 29 284 0
2019-01-11 11:17:48 GMT 48.182236 -0.035181 21,000 41 333 0
2019-01-11 11:17:38 GMT 48.170696 -0.050573 21,000 51 297 0
2019-01-11 11:17:28 GMT 48.162483 -0.065669 21,000 52 302 0
2019-01-11 11:17:15 GMT 48.151283 -0.087697 21,000 52 303 0
2019-01-11 11:17:04 GMT 48.132584 -0.123913 21,000 52 293 0
2019-01-11 11:16:53 GMT 48.132584 -0.123913 21,000 51 300 0
2019-01-11 11:16:43 GMT 48.124039 -0.140078 21,000 51 311 0
2019-01-11 11:16:33 GMT 48.115406 -0.156598 21,000 51 307 0
2019-01-11 11:16:17 GMT 48.101177 -0.183082 21,000 51 331 0
2019-01-11 11:16:06 GMT 48.091599 -0.201781 21,000 46 357 0
2019-01-11 11:15:45 GMT 48.070541 -0.240340 20,975 43 368 0
2019-01-11 11:15:23 GMT 48.043900 -0.280641 21,000 41 362 0
2019-01-11 11:15:07 GMT 48.010944 -0.324015 21,000 41 366 0
2019-01-11 11:14:57 GMT 48.010944 -0.324015 21,000 41 366 0
2019-01-11 11:14:43 GMT 47.993614 -0.347045 21,000 41 381 0
2019-01-11 11:14:25 GMT 47.969746 -0.378350 21,000 41 343 -64
2019-01-11 11:13:43 GMT 47.916370 -0.448710 21,000 41 343 -64
2019-01-11 11:13:21 GMT 47.879723 -0.496709 21,000 41 345 -64
2019-01-11 11:13:12 GMT 47.870785 -0.508611 21,000 41 345 -64
2019-01-11 11:12:58 GMT 47.851418 -0.534598 21,000 41 345 -64
2019-01-11 11:12:50 GMT 47.839920 -0.550091 21,000 41 345 -64
2019-01-11 11:12:41 GMT 47.828979 -0.564176 21,000 41 345 -64
2019-01-11 11:12:27 GMT 47.810406 -0.588332 21,000 41 345 -64
2019-01-11 11:12:22 GMT 47.786709 -0.618826 21,000 41 345 -64
2019-01-11 11:12:08 GMT 47.786709 -0.618826 21,000 41 345 -64
2019-01-11 11:11:59 GMT 47.778099 -0.630094 21,000 41 345 -64
2019-01-11 11:11:49 GMT 47.763618 -0.648827 21,000 41 345 -64
2019-01-11 11:11:41 GMT 47.741180 -0.678124 21,000 41 345 -64
2019-01-11 11:11:30 GMT 47.741180 -0.678124 21,000 41 345 -64
2019-01-11 11:11:15 GMT 47.722702 -0.701787 21,000 41 345 -64
2019-01-11 11:11:07 GMT 47.715485 -0.711294 21,000 41 345 -64
2019-01-11 11:10:55 GMT 47.699612 -0.731788 20,975 41 345 -64
2019-01-11 11:10:42 GMT 47.682384 -0.753831 20,875 41 345 -64
2019-01-11 11:10:35 GMT 47.668003 -0.772705 20,775 40 344 768
2019-01-11 11:10:29 GMT 47.668003 -0.772705 21,000 40 344 768
2019-01-11 11:10:12 GMT 47.646214 -0.800805 20,775 40 341 1600
2019-01-11 11:10:06 GMT 47.639885 -0.808833 20,875 40 338 1600
2019-01-11 11:09:56 GMT 47.628899 -0.822566 20,650 41 335 1728
2019-01-11 11:09:46 GMT 47.615818 -0.839398 20,375 41 334 1792
2019-01-11 11:09:35 GMT 47.603016 -0.856018 20,100 41 333 1856
2019-01-11 11:09:23 GMT 47.588818 -0.874188 19,725 41 332 1856
2019-01-11 11:09:14 GMT 47.579506 -0.886090 19,475 41 333 1792
2019-01-11 11:09:01 GMT 47.563213 -0.907428 19,125 41 331 1792
2019-01-11 11:08:50 GMT 47.549294 -0.925387 18,800 41 330 1792
2019-01-11 11:08:41 GMT 47.539890 -0.937430 18,500 41 326 2048

Making use of Plane Finder data

You are free to use the raw flight data, aircraft information and images provided in this report for your own purposes provided the data is correctly attributed to Plane Finder. We ask that you please credit Plane Finder and link to planefinder.net in close proximity to the content.

Optionally one of the following logos (no smaller then 150x24px) can be used and must link to planefinder.net

Embedding the Plane Finder map

You are welcome to embed the Plane Finder playback map on your website to offer visitors a more interactive experience. We suggest using the following HTML code:

<iframe src="//planefinder.net/data/report/AF1792-F-HBLG-7700-squawk-2019-01-11/map" width="800" height="600" seamless="seamless"></iframe>

Where our data comes from

Plane Finder has a global network of data feeds and antenna radars that receive data broadcast directly from aircraft. The primary technologies used are ADS-B and MLAT. We also show feeds from the FAA and a FLARM glider feed.

Click here to find out more about the Plane Finder network.

How we collect our data